Terminal Aerodrome Forecast
Issued by NWS Cleveland, OH

Home | Current Version | Previous Version | Graphics & Text | Print | Product List | Glossary On
Versions: 1 2 3 4 5 6 7 8 9 10 11 12 13 14 15 16 17 18 19 20 21 22 23 24
000
FTUS41 KCLE 292243 AAA
TAFMFD
TAF AMD
KMFD 292243Z 2923/3018 11008KT 6SM BR VCSH BKN025 OVC100
     FM300000 13007KT 4SM BR SCT007 OVC015
     FM300500 18005KT 3SM BR OVC007
     FM301500 23007KT 6SM BR OVC012=

USA.gov is the U.S. government's official web portal to all federal, state and local government web resources and services.